Time;durP1;ratioP1;P1;durP2;ratioP2;P2;SDS_P1;SDS_P2;PMS_P1;PMS_P2;Temp;Humidity;BMP_temperature;BMP_pressure;BME280_temperature;BME280_humidity;BME280_pressure;Samples;Min_cycle;Max_cycle;Signal;HPM_P1;HPM_P2
2024/04/23 00:01:24;;;;;;;2.45;1.83;;;;;;;;;;5410351;26;20000;-59
2024/04/23 00:03:49;;;;;;;2.90;2.17;;;;;;;;;;5406566;26;19996;-59
2024/04/23 00:06:15;;;;;;;2.63;2.03;;;;;;;;;;5397415;26;20299;-59
2024/04/23 00:08:40;;;;;;;2.70;2.30;;;;;;;;;;5400688;26;20011;-59
2024/04/23 00:11:05;;;;;;;2.85;1.98;;;;;;;;;;5390345;26;19991;-59
2024/04/23 00:13:31;;;;;;;2.45;2.22;;;;;;;;;;5391900;26;20012;-59
2024/04/23 00:15:56;;;;;;;2.70;2.13;;;;;;;;;;5395599;26;19995;-59
2024/04/23 00:18:21;;;;;;;2.92;2.10;;;;;;;;;;5408359;26;20010;-59
2024/04/23 00:20:46;;;;;;;2.25;1.85;;;;;;;;;;5407790;26;20506;-59
2024/04/23 00:23:12;;;;;;;2.80;2.10;;;;;;;;;;5408678;26;20172;-59
2024/04/23 00:25:38;;;;;;;2.92;2.10;;;;;;;;;;5408814;26;20310;-59
2024/04/23 00:28:03;;;;;;;2.67;2.03;;;;;;;;;;5405881;26;20103;-59
2024/04/23 00:30:28;;;;;;;3.13;2.10;;;;;;;;;;5401860;26;20127;-59
2024/04/23 00:32:54;;;;;;;2.53;2.13;;;;;;;;;;5406657;26;20471;-59
2024/04/23 00:35:19;;;;;;;2.55;1.90;;;;;;;;;;5405014;26;20441;-58
2024/04/23 00:37:44;;;;;;;2.45;2.00;;;;;;;;;;5409987;26;20094;-59
2024/04/23 00:40:10;;;;;;;2.92;2.00;;;;;;;;;;5399709;26;20007;-59
2024/04/23 00:42:35;;;;;;;2.85;1.95;;;;;;;;;;5408141;26;19995;-59
2024/04/23 00:45:00;;;;;;;2.33;2.00;;;;;;;;;;5411258;26;20014;-59
2024/04/23 00:47:26;;;;;;;2.70;2.03;;;;;;;;;;5409176;26;20000;-59
2024/04/23 00:49:51;;;;;;;2.70;2.17;;;;;;;;;;5410270;26;20015;-59
2024/04/23 00:52:16;;;;;;;2.75;2.03;;;;;;;;;;5409890;26;20000;-59
2024/04/23 00:54:42;;;;;;;3.42;2.10;;;;;;;;;;5411284;26;19999;-59
2024/04/23 00:57:07;;;;;;;2.70;2.00;;;;;;;;;;5409710;26;20000;-59
2024/04/23 00:59:32;;;;;;;2.33;1.92;;;;;;;;;;5394847;26;20438;-58
2024/04/23 01:01:58;;;;;;;2.10;1.90;;;;;;;;;;5394938;26;19995;-59
2024/04/23 01:04:23;;;;;;;2.22;1.70;;;;;;;;;;5409832;26;20000;-58
2024/04/23 01:06:49;;;;;;;2.15;1.80;;;;;;;;;;5411439;26;20007;-59
2024/04/23 01:09:15;;;;;;;2.50;1.90;;;;;;;;;;5390919;26;20287;-59
2024/04/23 01:11:40;;;;;;;2.35;1.95;;;;;;;;;;5408687;26;20140;-59
2024/04/23 01:14:07;;;;;;;2.20;2.00;;;;;;;;;;5408422;26;20420;-59
2024/04/23 01:16:34;;;;;;;2.35;2.00;;;;;;;;;;5408639;26;20004;-59
2024/04/23 01:19:00;;;;;;;2.40;2.00;;;;;;;;;;5401748;26;20040;-59
2024/04/23 01:21:47;;;;;;;2.10;1.90;;;;;;;;;;5403238;26;20542;-58
2024/04/23 01:24:15;;;;;;;3.25;1.95;;;;;;;;;;5409050;26;20477;-59
2024/04/23 01:26:40;;;;;;;2.13;1.80;;;;;;;;;;5409617;26;20370;-59
2024/04/23 01:29:06;;;;;;;2.40;2.10;;;;;;;;;;5410205;26;20000;-59
2024/04/23 01:31:31;;;;;;;2.15;1.63;;;;;;;;;;5394516;26;20001;-60
2024/04/23 01:33:56;;;;;;;2.28;1.85;;;;;;;;;;5396405;26;20413;-59
2024/04/23 01:36:21;;;;;;;2.40;1.90;;;;;;;;;;5409488;26;20083;-59
2024/04/23 01:38:47;;;;;;;2.15;1.80;;;;;;;;;;5406859;26;20007;-59
2024/04/23 01:41:12;;;;;;;2.22;1.80;;;;;;;;;;5402970;26;20015;-59
2024/04/23 01:43:37;;;;;;;2.28;1.95;;;;;;;;;;5405270;26;20018;-60
2024/04/23 01:46:03;;;;;;;2.20;1.90;;;;;;;;;;5409261;26;20000;-59
2024/04/23 01:48:28;;;;;;;3.53;2.10;;;;;;;;;;5406726;26;20007;-60
2024/04/23 01:50:54;;;;;;;2.53;1.73;;;;;;;;;;5405827;26;20000;-58
2024/04/23 01:53:19;;;;;;;2.08;1.83;;;;;;;;;;5392295;26;20080;-59
2024/04/23 01:55:44;;;;;;;2.50;1.85;;;;;;;;;;5411479;26;20022;-60
2024/04/23 01:58:09;;;;;;;1.92;1.50;;;;;;;;;;5411272;26;20003;-59
2024/04/23 02:00:36;;;;;;;2.47;2.00;;;;;;;;;;5404601;26;20004;-59
2024/04/23 02:03:01;;;;;;;1.90;1.65;;;;;;;;;;5389802;26;20042;-59
2024/04/23 02:05:27;;;;;;;3.10;1.90;;;;;;;;;;5407515;26;20484;-59
2024/04/23 02:07:52;;;;;;;2.20;1.60;;;;;;;;;;5409968;26;20007;-59
2024/04/23 02:10:17;;;;;;;2.72;1.80;;;;;;;;;;5410629;26;20141;-59
2024/04/23 02:12:43;;;;;;;2.05;1.67;;;;;;;;;;5401751;26;20010;-60
2024/04/23 02:15:08;;;;;;;2.63;2.15;;;;;;;;;;5407032;26;20014;-60
2024/04/23 02:17:34;;;;;;;2.00;1.75;;;;;;;;;;5410555;26;20011;-59
2024/04/23 02:20:00;;;;;;;1.90;1.65;;;;;;;;;;5408630;26;19999;-59
2024/04/23 02:22:25;;;;;;;2.00;1.60;;;;;;;;;;5406877;26;20019;-59
2024/04/23 02:24:51;;;;;;;2.05;1.45;;;;;;;;;;5407086;26;20531;-60
2024/04/23 02:27:16;;;;;;;1.98;1.48;;;;;;;;;;5391926;26;20064;-59
2024/04/23 02:29:41;;;;;;;2.08;1.60;;;;;;;;;;5406882;26;20060;-60
2024/04/23 02:32:07;;;;;;;2.22;1.70;;;;;;;;;;5388585;26;20000;-59
2024/04/23 02:34:32;;;;;;;2.20;1.70;;;;;;;;;;5406134;26;20119;-59
2024/04/23 02:36:57;;;;;;;2.15;1.75;;;;;;;;;;5410188;26;20551;-59
2024/04/23 02:39:22;;;;;;;2.17;1.83;;;;;;;;;;5397425;26;20019;-59
2024/04/23 02:41:48;;;;;;;2.10;1.60;;;;;;;;;;5396067;26;20056;-60
2024/04/23 02:44:13;;;;;;;2.35;1.70;;;;;;;;;;5409311;26;20188;-59
2024/04/23 02:46:39;;;;;;;1.98;1.60;;;;;;;;;;5409577;26;19999;-60
2024/04/23 02:49:04;;;;;;;2.42;1.63;;;;;;;;;;5406671;26;20003;-60
2024/04/23 02:51:29;;;;;;;2.20;1.40;;;;;;;;;;5407708;26;20015;-59
2024/04/23 02:53:54;;;;;;;2.08;1.70;;;;;;;;;;5402750;26;20573;-60
2024/04/23 02:56:20;;;;;;;2.25;1.50;;;;;;;;;;5385421;26;19996;-59
2024/04/23 02:58:45;;;;;;;2.10;1.50;;;;;;;;;;5391079;26;20015;-59
2024/04/23 03:01:10;;;;;;;2.20;1.80;;;;;;;;;;5408111;26;19996;-60
2024/04/23 03:03:36;;;;;;;2.33;1.63;;;;;;;;;;5400020;26;20014;-60
2024/04/23 03:06:01;;;;;;;2.50;1.67;;;;;;;;;;5406571;26;20408;-59
2024/04/23 03:08:27;;;;;;;2.50;1.60;;;;;;;;;;5405932;26;19999;-59
2024/04/23 03:10:52;;;;;;;2.95;1.75;;;;;;;;;;5405297;26;20099;-60
2024/04/23 03:13:17;;;;;;;1.60;1.20;;;;;;;;;;5385466;26;19999;-59
2024/04/23 03:15:42;;;;;;;2.00;1.60;;;;;;;;;;5408946;26;20399;-60
2024/04/23 03:18:09;;;;;;;1.92;1.50;;;;;;;;;;5394601;26;20438;-59
2024/04/23 03:20:34;;;;;;;2.03;1.58;;;;;;;;;;5408629;26;20212;-59
2024/04/23 03:22:59;;;;;;;1.52;1.30;;;;;;;;;;5398847;26;19999;-59
2024/04/23 03:25:25;;;;;;;1.92;1.67;;;;;;;;;;5408386;26;20407;-60
2024/04/23 03:27:50;;;;;;;2.33;1.33;;;;;;;;;;5410285;26;19999;-58
2024/04/23 03:30:15;;;;;;;1.80;1.50;;;;;;;;;;5385483;26;20000;-59
2024/04/23 03:32:41;;;;;;;2.00;1.70;;;;;;;;;;5392769;26;20028;-58
2024/04/23 03:35:06;;;;;;;1.85;1.60;;;;;;;;;;5408533;26;20080;-58
2024/04/23 03:37:31;;;;;;;2.50;1.60;;;;;;;;;;5409495;26;19999;-58
2024/04/23 03:39:57;;;;;;;2.60;1.60;;;;;;;;;;5409881;26;19999;-58
2024/04/23 03:42:22;;;;;;;1.65;1.48;;;;;;;;;;5407194;26;20073;-57
2024/04/23 03:44:47;;;;;;;2.35;1.40;;;;;;;;;;5405636;26;20000;-58
2024/04/23 03:47:13;;;;;;;2.25;1.52;;;;;;;;;;5407953;26;19997;-57
2024/04/23 03:49:38;;;;;;;2.13;1.55;;;;;;;;;;5404239;26;20017;-58
2024/04/23 03:52:10;;;;;;;1.70;1.42;;;;;;;;;;5392704;26;20353;-59
2024/04/23 03:54:35;;;;;;;1.83;1.50;;;;;;;;;;5408457;26;19999;-59
2024/04/23 03:57:01;;;;;;;1.40;1.20;;;;;;;;;;5402867;26;20126;-59
2024/04/23 03:59:26;;;;;;;1.77;1.33;;;;;;;;;;5381498;26;20012;-59
2024/04/23 04:06:03;;;;;;;1.80;1.40;;;;;;;;;;5386002;26;20004;-59
2024/04/23 04:07:20;;;;;;;1.70;1.38;;;;;;;;;;5390405;26;20593;-58
2024/04/23 04:09:46;;;;;;;1.98;1.50;;;;;;;;;;5400289;26;19999;-58
2024/04/23 04:12:12;;;;;;;2.00;1.50;;;;;;;;;;5386361;26;20015;-59
2024/04/23 04:14:38;;;;;;;1.98;1.63;;;;;;;;;;5399857;26;19997;-59
2024/04/23 04:17:03;;;;;;;3.05;1.70;;;;;;;;;;5384813;26;20876;-58
2024/04/23 04:19:29;;;;;;;1.75;1.52;;;;;;;;;;5383136;26;20493;-59
2024/04/23 04:21:57;;;;;;;2.80;1.60;;;;;;;;;;5387288;26;19999;-59
2024/04/23 04:24:22;;;;;;;3.03;1.30;;;;;;;;;;5388749;26;19996;-59
2024/04/23 04:26:48;;;;;;;4.80;1.40;;;;;;;;;;5404464;26;20000;-59
2024/04/23 04:29:13;;;;;;;2.42;1.35;;;;;;;;;;5392877;26;20015;-59
2024/04/23 04:31:38;;;;;;;2.08;1.65;;;;;;;;;;5386387;26;20437;-58
2024/04/23 04:34:04;;;;;;;2.30;1.60;;;;;;;;;;5388277;26;20426;-58
2024/04/23 04:36:29;;;;;;;1.73;1.30;;;;;;;;;;5388919;26;20041;-57
2024/04/23 04:38:54;;;;;;;2.67;1.55;;;;;;;;;;5390043;26;20004;-57
2024/04/23 04:41:20;;;;;;;2.00;1.15;;;;;;;;;;5389427;26;20000;-58
2024/04/23 04:43:45;;;;;;;2.08;1.38;;;;;;;;;;5388933;26;20007;-57
2024/04/23 04:46:10;;;;;;;1.73;1.30;;;;;;;;;;5389593;26;20008;-58
2024/04/23 04:48:36;;;;;;;1.95;1.33;;;;;;;;;;5387847;26;20014;-59
2024/04/23 04:51:01;;;;;;;2.72;1.30;;;;;;;;;;5388273;26;20468;-57
2024/04/23 04:53:26;;;;;;;1.48;1.30;;;;;;;;;;5388862;26;20445;-59
2024/04/23 04:55:52;;;;;;;1.85;1.60;;;;;;;;;;5387574;26;20008;-57
2024/04/23 04:58:17;;;;;;;1.45;1.27;;;;;;;;;;5387694;26;20528;-58
2024/04/23 05:00:42;;;;;;;2.47;1.50;;;;;;;;;;5386619;26;20012;-58
2024/04/23 05:03:08;;;;;;;3.53;1.58;;;;;;;;;;5391133;26;20057;-58
2024/04/23 05:05:33;;;;;;;2.53;1.42;;;;;;;;;;5386296;26;20014;-58
2024/04/23 05:07:58;;;;;;;2.25;1.65;;;;;;;;;;5389581;26;20007;-58
2024/04/23 05:10:23;;;;;;;1.60;1.10;;;;;;;;;;5387122;26;19999;-58
2024/04/23 05:12:49;;;;;;;2.38;1.48;;;;;;;;;;5384538;26;20007;-57
2024/04/23 05:15:14;;;;;;;2.30;1.33;;;;;;;;;;5385161;26;20473;-57
2024/04/23 05:17:40;;;;;;;1.98;1.35;;;;;;;;;;5387431;26;20449;-58
2024/04/23 05:20:07;;;;;;;2.85;1.42;;;;;;;;;;5385305;26;20007;-58
2024/04/23 05:22:32;;;;;;;1.70;1.38;;;;;;;;;;5394624;26;20121;-58
2024/04/23 05:24:57;;;;;;;2.80;1.42;;;;;;;;;;5384789;26;20548;-58
2024/04/23 05:27:23;;;;;;;2.38;1.35;;;;;;;;;;5389314;26;20018;-59
2024/04/23 05:29:53;;;;;;;1.95;1.20;;;;;;;;;;5385045;26;20611;-57
2024/04/23 05:35:02;;;;;;;2.28;1.50;;;;;;;;;;5388767;26;20033;-57
2024/04/23 05:37:28;;;;;;;3.33;1.40;;;;;;;;;;5391434;26;20341;-58
2024/04/23 05:39:53;;;;;;;2.17;1.50;;;;;;;;;;5394616;26;20737;-58
2024/04/23 05:42:18;;;;;;;1.58;1.17;;;;;;;;;;5387899;26;19996;-59
2024/04/23 05:44:44;;;;;;;2.33;1.50;;;;;;;;;;5389186;26;20361;-57
2024/04/23 05:47:09;;;;;;;1.80;1.50;;;;;;;;;;5388649;26;22476;-58
2024/04/23 05:49:53;;;;;;;1.75;1.25;;;;;;;;;;5387472;26;20019;-58
2024/04/23 05:52:37;;;;;;;3.10;1.70;;;;;;;;;;5383712;26;20128;-57
2024/04/23 05:55:21;;;;;;;1.60;1.30;;;;;;;;;;5386333;26;20014;-58
2024/04/23 05:57:50;;;;;;;1.80;1.38;;;;;;;;;;5389529;26;20014;-57
2024/04/23 06:00:15;;;;;;;2.03;1.50;;;;;;;;;;5384517;26;20053;-58
2024/04/23 06:02:41;;;;;;;2.63;1.27;;;;;;;;;;5389020;26;20051;-59
2024/04/23 06:05:06;;;;;;;1.80;1.35;;;;;;;;;;5386100;26;20039;-58
2024/04/23 06:07:31;;;;;;;2.22;1.23;;;;;;;;;;5389284;26;20004;-59
2024/04/23 06:09:57;;;;;;;1.67;1.40;;;;;;;;;;5387067;26;20328;-58
2024/04/23 06:12:22;;;;;;;1.75;1.27;;;;;;;;;;5386479;26;20051;-58
2024/04/23 06:14:47;;;;;;;1.95;1.33;;;;;;;;;;5385588;26;20433;-58
2024/04/23 06:17:19;;;;;;;2.00;1.42;;;;;;;;;;5386712;26;20032;-58
2024/04/23 06:19:49;;;;;;;2.83;1.42;;;;;;;;;;5387893;26;20433;-59
2024/04/23 06:22:15;;;;;;;;;;;;;;;;;;5388042;26;19995;-59
2024/04/23 06:24:40;;;;;;;2.17;1.40;;;;;;;;;;5387749;26;20003;-59
2024/04/23 06:27:05;;;;;;;3.10;1.48;;;;;;;;;;5387436;26;19995;-59
2024/04/23 06:29:30;;;;;;;2.35;1.20;;;;;;;;;;5384674;26;20014;-59
2024/04/23 06:31:56;;;;;;;3.42;1.50;;;;;;;;;;5383095;26;20169;-59
2024/04/23 06:34:21;;;;;;;2.22;1.50;;;;;;;;;;5385323;26;20008;-59
2024/04/23 06:36:46;;;;;;;2.65;1.40;;;;;;;;;;5380870;26;20036;-59
2024/04/23 06:39:12;;;;;;;1.80;1.20;;;;;;;;;;5387168;26;20086;-58
2024/04/23 06:41:37;;;;;;;3.25;1.80;;;;;;;;;;5387951;26;20450;-59
2024/04/23 06:44:02;;;;;;;4.28;1.58;;;;;;;;;;5389549;26;20007;-59
2024/04/23 06:46:27;;;;;;;2.22;1.67;;;;;;;;;;5400095;26;20010;-56
2024/04/23 06:48:55;;;;;;;3.55;2.10;;;;;;;;;;5388409;26;20015;-56
2024/04/23 06:51:20;;;;;;;4.70;1.58;;;;;;;;;;5390080;26;20460;-56
2024/04/23 06:53:45;;;;;;;2.63;1.40;;;;;;;;;;5385913;26;20019;-57
2024/04/23 06:56:10;;;;;;;2.85;1.60;;;;;;;;;;5387344;26;20000;-57
2024/04/23 06:58:36;;;;;;;2.85;1.45;;;;;;;;;;5386774;26;20015;-57
2024/04/23 07:01:01;;;;;;;3.75;1.70;;;;;;;;;;5389611;26;20003;-58
2024/04/23 07:03:26;;;;;;;2.17;1.60;;;;;;;;;;5388506;26;20099;-58
2024/04/23 07:05:52;;;;;;;3.10;1.85;;;;;;;;;;5382162;26;20823;-57
2024/04/23 07:08:17;;;;;;;3.08;1.75;;;;;;;;;;5389520;26;19997;-57
2024/04/23 07:10:43;;;;;;;4.15;1.80;;;;;;;;;;5389113;26;20453;-57
2024/04/23 07:13:08;;;;;;;3.53;1.60;;;;;;;;;;5392765;26;20015;-56
2024/04/23 07:15:33;;;;;;;1.77;1.48;;;;;;;;;;5393390;26;19995;-56
2024/04/23 07:17:59;;;;;;;2.67;1.50;;;;;;;;;;5389372;26;20010;-58
2024/04/23 07:20:24;;;;;;;2.65;1.60;;;;;;;;;;5386500;26;20003;-56
2024/04/23 07:22:49;;;;;;;2.40;1.50;;;;;;;;;;5386459;26;20000;-56
2024/04/23 07:25:15;;;;;;;2.08;1.50;;;;;;;;;;5383270;26;20012;-57
2024/04/23 07:27:40;;;;;;;2.03;1.48;;;;;;;;;;5385867;26;20000;-57
2024/04/23 07:30:06;;;;;;;3.05;1.70;;;;;;;;;;5383290;26;19996;-57
2024/04/23 07:32:31;;;;;;;2.00;1.60;;;;;;;;;;5383438;26;20000;-59
2024/04/23 07:34:57;;;;;;;3.10;1.60;;;;;;;;;;5385934;26;20006;-58
2024/04/23 07:37:22;;;;;;;3.38;1.60;;;;;;;;;;5385719;26;20489;-57
2024/04/23 07:39:48;;;;;;;2.70;1.70;;;;;;;;;;5387738;26;20023;-57
2024/04/23 07:42:13;;;;;;;2.10;1.42;;;;;;;;;;5386252;26;20043;-58
2024/04/23 07:44:38;;;;;;;3.05;2.03;;;;;;;;;;5385040;26;20101;-57
2024/04/23 07:47:04;;;;;;;2.65;1.50;;;;;;;;;;5385644;26;20014;-57
2024/04/23 07:49:29;;;;;;;2.63;1.88;;;;;;;;;;5386996;26;20315;-60
2024/04/23 07:51:54;;;;;;;3.63;1.58;;;;;;;;;;5385157;26;19996;-57
2024/04/23 07:54:19;;;;;;;1.88;1.40;;;;;;;;;;5384832;26;20054;-57
2024/04/23 07:56:45;;;;;;;2.85;1.88;;;;;;;;;;5384532;26;20004;-57
2024/04/23 07:59:10;;;;;;;3.13;1.58;;;;;;;;;;5385500;26;19992;-61
2024/04/23 08:01:35;;;;;;;2.25;1.70;;;;;;;;;;5388434;26;20023;-57
2024/04/23 08:04:01;;;;;;;2.67;1.60;;;;;;;;;;5386431;26;20004;-56
2024/04/23 08:06:27;;;;;;;2.00;1.52;;;;;;;;;;5388925;26;20004;-55
2024/04/23 08:08:53;;;;;;;2.65;1.70;;;;;;;;;;5388131;26;19999;-55
2024/04/23 08:11:18;;;;;;;2.22;1.67;;;;;;;;;;5386228;26;20081;-56
2024/04/23 08:13:43;;;;;;;2.58;1.48;;;;;;;;;;5390421;26;19999;-56
2024/04/23 08:16:10;;;;;;;2.10;1.58;;;;;;;;;;5385600;26;20007;-56
2024/04/23 08:18:36;;;;;;;2.72;2.00;;;;;;;;;;5385310;26;20018;-56
2024/04/23 08:21:05;;;;;;;2.28;1.50;;;;;;;;;;5386318;26;19992;-55
2024/04/23 08:23:31;;;;;;;2.50;1.70;;;;;;;;;;5386900;26;19996;-55
2024/04/23 08:25:56;;;;;;;3.45;1.60;;;;;;;;;;5385993;26;20015;-56
2024/04/23 08:28:21;;;;;;;2.38;1.50;;;;;;;;;;5381994;26;20027;-56
2024/04/23 08:30:47;;;;;;;2.13;1.60;;;;;;;;;;5385696;26;20012;-56
2024/04/23 08:33:12;;;;;;;2.35;1.50;;;;;;;;;;5388171;26;20007;-57
2024/04/23 08:35:37;;;;;;;2.25;1.50;;;;;;;;;;5388545;26;20015;-56
2024/04/23 08:38:02;;;;;;;2.45;1.67;;;;;;;;;;5389390;26;20015;-58
2024/04/23 08:40:28;;;;;;;2.08;1.63;;;;;;;;;;5391101;26;20013;-57
2024/04/23 08:42:54;;;;;;;2.55;1.65;;;;;;;;;;5396286;26;19999;-56
2024/04/23 08:45:19;;;;;;;2.88;1.88;;;;;;;;;;5389323;26;20007;-57
2024/04/23 08:47:44;;;;;;;1.83;1.40;;;;;;;;;;5387347;26;20015;-56
2024/04/23 08:50:10;;;;;;;2.53;1.60;;;;;;;;;;5394706;26;19999;-56
2024/04/23 08:52:36;;;;;;;2.78;1.70;;;;;;;;;;5385732;26;20707;-56
2024/04/23 08:55:01;;;;;;;2.20;1.70;;;;;;;;;;5389303;26;19995;-57
2024/04/23 08:57:26;;;;;;;2.40;1.70;;;;;;;;;;5388069;26;20450;-56
2024/04/23 08:59:52;;;;;;;1.92;1.50;;;;;;;;;;5392231;26;19999;-58
2024/04/23 09:02:22;;;;;;;2.90;1.40;;;;;;;;;;5395335;26;20006;-57
2024/04/23 09:04:47;;;;;;;2.90;1.55;;;;;;;;;;5391788;26;19992;-57
2024/04/23 09:07:13;;;;;;;2.17;1.42;;;;;;;;;;5397723;26;20003;-58
2024/04/23 09:09:38;;;;;;;2.35;1.75;;;;;;;;;;5389050;26;20043;-57
2024/04/23 09:12:05;;;;;;;2.70;1.50;;;;;;;;;;5394875;26;20006;-57
2024/04/23 09:14:30;;;;;;;3.45;1.60;;;;;;;;;;5386561;26;20012;-57
2024/04/23 09:16:56;;;;;;;4.13;1.80;;;;;;;;;;5384421;26;20753;-56
2024/04/23 09:19:22;;;;;;;2.60;1.67;;;;;;;;;;5386735;26;20068;-56
2024/04/23 09:21:47;;;;;;;2.00;1.50;;;;;;;;;;5385757;26;19995;-58
2024/04/23 09:24:13;;;;;;;2.50;1.70;;;;;;;;;;5394690;26;19999;-57
2024/04/23 09:26:40;;;;;;;2.20;1.80;;;;;;;;;;5407747;26;20007;-57
2024/04/23 09:29:06;;;;;;;2.35;1.70;;;;;;;;;;5405959;26;20043;-57
2024/04/23 09:31:35;;;;;;;2.63;1.40;;;;;;;;;;5405265;26;20073;-56
2024/04/23 09:34:01;;;;;;;2.38;1.70;;;;;;;;;;5390082;26;20337;-56
2024/04/23 09:36:26;;;;;;;1.83;1.55;;;;;;;;;;5408840;26;20000;-56
2024/04/23 09:38:52;;;;;;;2.60;1.73;;;;;;;;;;5409777;26;20011;-57
2024/04/23 09:41:18;;;;;;;2.55;1.42;;;;;;;;;;5409207;26;20356;-57
2024/04/23 09:43:56;;;;;;;2.40;1.60;;;;;;;;;;5407848;26;20011;-57
2024/04/23 09:46:22;;;;;;;2.25;1.42;;;;;;;;;;5409171;26;20018;-56
2024/04/23 09:48:49;;;;;;;2.63;1.50;;;;;;;;;;5408903;26;20376;-57
2024/04/23 09:51:14;;;;;;;2.90;1.58;;;;;;;;;;5403711;26;20034;-56
2024/04/23 09:53:39;;;;;;;2.08;1.30;;;;;;;;;;5400723;26;20368;-56
2024/04/23 09:56:05;;;;;;;2.17;1.77;;;;;;;;;;5408398;26;20004;-57
2024/04/23 09:58:31;;;;;;;2.83;1.55;;;;;;;;;;5408692;26;20291;-58
2024/04/23 10:00:56;;;;;;;2.17;1.38;;;;;;;;;;5401759;26;19995;-57
2024/04/23 10:03:26;;;;;;;3.50;1.55;;;;;;;;;;5387416;26;20007;-57
2024/04/23 10:05:51;;;;;;;2.50;1.50;;;;;;;;;;5391684;26;20024;-57
2024/04/23 10:08:29;;;;;;;3.40;1.83;;;;;;;;;;5388232;26;20073;-57
2024/04/23 10:10:54;;;;;;;3.35;1.73;;;;;;;;;;5390195;26;20872;-57
2024/04/23 10:13:24;;;;;;;2.92;1.52;;;;;;;;;;5401714;26;20002;-57
2024/04/23 10:15:56;;;;;;;2.42;1.55;;;;;;;;;;5385830;26;19997;-57
2024/04/23 10:18:41;;;;;;;3.38;1.60;;;;;;;;;;5390214;26;20466;-57
2024/04/23 10:21:08;;;;;;;2.90;1.60;;;;;;;;;;5404774;26;20008;-56
2024/04/23 10:23:33;;;;;;;4.13;1.80;;;;;;;;;;5395293;26;20532;-56
2024/04/23 10:25:59;;;;;;;2.65;1.70;;;;;;;;;;5390011;26;20019;-57
2024/04/23 10:28:24;;;;;;;3.97;1.92;;;;;;;;;;5386069;26;19995;-57
2024/04/23 10:30:49;;;;;;;3.05;1.52;;;;;;;;;;5385519;26;20040;-56
2024/04/23 10:33:15;;;;;;;2.78;1.67;;;;;;;;;;5387477;26;19995;-55
2024/04/23 10:35:40;;;;;;;2.75;1.30;;;;;;;;;;5384227;26;20024;-57
2024/04/23 10:38:05;;;;;;;3.38;1.65;;;;;;;;;;5390519;26;20486;-57
2024/04/23 10:40:31;;;;;;;3.25;1.60;;;;;;;;;;5390183;26;20027;-57
2024/04/23 10:42:56;;;;;;;3.47;1.98;;;;;;;;;;5384180;26;20020;-56
2024/04/23 10:45:21;;;;;;;2.45;1.38;;;;;;;;;;5388965;26;20034;-57
2024/04/23 10:47:50;;;;;;;2.45;1.60;;;;;;;;;;5391078;26;20426;-57
2024/04/23 10:50:29;;;;;;;2.30;1.40;;;;;;;;;;5393790;26;19999;-57
2024/04/23 10:52:59;;;;;;;2.97;1.38;;;;;;;;;;5401052;26;20072;-56
2024/04/23 10:55:25;;;;;;;2.90;1.70;;;;;;;;;;5386176;26;20011;-56
2024/04/23 10:57:50;;;;;;;2.08;1.30;;;;;;;;;;5389374;26;20004;-58
2024/04/23 11:00:17;;;;;;;2.80;1.48;;;;;;;;;;5383999;26;20000;-58
2024/04/23 11:02:43;;;;;;;2.00;1.40;;;;;;;;;;5385981;26;20018;-57
2024/04/23 11:05:17;;;;;;;3.38;1.60;;;;;;;;;;5382590;26;20000;-56
2024/04/23 11:07:49;;;;;;;2.25;1.42;;;;;;;;;;5388874;26;20422;-56
2024/04/23 11:10:17;;;;;;;2.22;1.50;;;;;;;;;;5391151;26;20014;-56
2024/04/23 11:12:44;;;;;;;3.72;1.38;;;;;;;;;;5381178;26;20080;-57
2024/04/23 11:15:14;;;;;;;2.45;1.55;;;;;;;;;;5388840;26;19996;-56
2024/04/23 11:17:40;;;;;;;2.53;1.53;;;;;;;;;;5385229;26;20004;-56
2024/04/23 11:20:05;;;;;;;2.60;1.40;;;;;;;;;;5392390;26;19996;-57
2024/04/23 11:22:37;;;;;;;3.40;1.40;;;;;;;;;;5392075;26;20011;-56
2024/04/23 11:25:03;;;;;;;3.03;1.27;;;;;;;;;;5385540;26;20007;-57
2024/04/23 11:27:32;;;;;;;2.45;1.35;;;;;;;;;;5383316;26;20365;-56
2024/04/23 11:29:57;;;;;;;1.65;1.15;;;;;;;;;;5393350;26;20431;-57
2024/04/23 11:32:23;;;;;;;1.67;1.30;;;;;;;;;;5400692;26;19995;-58
2024/04/23 11:34:48;;;;;;;3.42;1.60;;;;;;;;;;5397088;26;20024;-57
2024/04/23 11:37:20;;;;;;;1.52;1.20;;;;;;;;;;5387399;26;20012;-56
2024/04/23 11:39:45;;;;;;;2.22;1.42;;;;;;;;;;5387939;26;20351;-56
2024/04/23 11:42:10;;;;;;;1.77;1.25;;;;;;;;;;5386885;26;20011;-57
2024/04/23 11:44:36;;;;;;;2.55;1.30;;;;;;;;;;5386583;26;20011;-58
2024/04/23 11:47:01;;;;;;;2.22;1.20;;;;;;;;;;5389288;26;20043;-57
2024/04/23 11:49:26;;;;;;;2.15;1.05;;;;;;;;;;5389618;26;20010;-58
2024/04/23 11:51:54;;;;;;;1.73;1.30;;;;;;;;;;5399188;26;20031;-58
2024/04/23 11:54:20;;;;;;;1.98;1.38;;;;;;;;;;5388296;26;20086;-58
2024/04/23 11:56:45;;;;;;;2.50;1.45;;;;;;;;;;5388636;26;20013;-57
2024/04/23 11:59:14;;;;;;;1.80;1.40;;;;;;;;;;5396015;26;19999;-58
2024/04/23 12:01:40;;;;;;;1.67;1.13;;;;;;;;;;5394601;26;19996;-58
2024/04/23 12:04:05;;;;;;;2.00;1.30;;;;;;;;;;5388602;26;20025;-58
2024/04/23 12:06:30;;;;;;;1.42;1.23;;;;;;;;;;5395428;26;19992;-56
2024/04/23 12:08:56;;;;;;;1.65;1.08;;;;;;;;;;5394162;26;20014;-56
2024/04/23 12:11:22;;;;;;;1.33;1.10;;;;;;;;;;5393568;26;19995;-56
2024/04/23 12:13:48;;;;;;;1.98;1.25;;;;;;;;;;5397489;26;20003;-56
2024/04/23 12:16:15;;;;;;;2.03;1.25;;;;;;;;;;5389162;26;20813;-56
2024/04/23 12:18:41;;;;;;;3.22;1.58;;;;;;;;;;5401147;26;20000;-56
2024/04/23 12:21:07;;;;;;;1.85;1.30;;;;;;;;;;5413300;26;20003;-56
2024/04/23 12:23:32;;;;;;;1.50;1.20;;;;;;;;;;5416327;26;19999;-56
2024/04/23 12:25:57;;;;;;;1.88;1.10;;;;;;;;;;5414706;26;19996;-58
2024/04/23 12:28:22;;;;;;;3.08;1.13;;;;;;;;;;5417697;26;20000;-56
2024/04/23 12:30:48;;;;;;;1.98;1.23;;;;;;;;;;5412993;26;20014;-56
2024/04/23 12:33:14;;;;;;;1.65;1.20;;;;;;;;;;5411111;26;20014;-55
2024/04/23 12:35:40;;;;;;;1.92;1.45;;;;;;;;;;5410612;26;19996;-56
2024/04/23 12:38:06;;;;;;;1.95;1.23;;;;;;;;;;5411807;26;20000;-56
2024/04/23 12:40:32;;;;;;;1.50;1.20;;;;;;;;;;5411121;26;20033;-56
2024/04/23 12:42:58;;;;;;;1.88;1.20;;;;;;;;;;5409154;26;20015;-57
2024/04/23 12:45:23;;;;;;;2.22;1.10;;;;;;;;;;5411298;26;19999;-57
2024/04/23 12:47:48;;;;;;;1.42;1.00;;;;;;;;;;5409536;26;20017;-56
2024/04/23 12:50:13;;;;;;;2.35;1.17;;;;;;;;;;5409928;26;19996;-57
2024/04/23 12:52:39;;;;;;;1.92;1.13;;;;;;;;;;5410848;26;20006;-55
2024/04/23 12:55:04;;;;;;;2.05;1.20;;;;;;;;;;5382218;26;19995;-55
2024/04/23 12:57:30;;;;;;;1.73;1.10;;;;;;;;;;5411373;26;19999;-55
2024/04/23 12:59:55;;;;;;;1.50;1.08;;;;;;;;;;5411055;26;20297;-56
2024/04/23 13:02:21;;;;;;;1.40;1.02;;;;;;;;;;5410746;26;20071;-56
2024/04/23 13:04:46;;;;;;;2.28;1.30;;;;;;;;;;5409039;26;20429;-56
2024/04/23 13:07:11;;;;;;;2.05;1.02;;;;;;;;;;5389477;26;20008;-56
2024/04/23 13:09:37;;;;;;;1.63;1.15;;;;;;;;;;5399264;26;20041;-56
2024/04/23 13:12:09;;;;;;;1.45;1.00;;;;;;;;;;5409843;26;20003;-57
2024/04/23 13:14:36;;;;;;;1.90;1.17;;;;;;;;;;5382923;26;20667;-56
2024/04/23 13:17:03;;;;;;;1.90;0.98;;;;;;;;;;5409872;26;20077;-56
2024/04/23 13:19:28;;;;;;;1.80;1.15;;;;;;;;;;5410902;26;20029;-56
2024/04/23 13:21:53;;;;;;;1.08;0.82;;;;;;;;;;5410471;26;20017;-58
2024/04/23 13:24:19;;;;;;;1.73;1.10;;;;;;;;;;5409498;26;20015;-57
2024/04/23 13:26:44;;;;;;;2.08;0.90;;;;;;;;;;5409453;26;20077;-57
2024/04/23 13:29:12;;;;;;;1.27;0.93;;;;;;;;;;5411107;26;20004;-57
2024/04/23 13:31:38;;;;;;;1.50;0.90;;;;;;;;;;5410233;26;20013;-55
2024/04/23 13:34:03;;;;;;;2.47;0.93;;;;;;;;;;5408632;26;19999;-56
2024/04/23 13:36:28;;;;;;;1.42;1.00;;;;;;;;;;5410725;26;20011;-55
2024/04/23 13:38:54;;;;;;;1.83;0.98;;;;;;;;;;5410750;26;20318;-56
2024/04/23 13:41:19;;;;;;;1.30;0.80;;;;;;;;;;5408539;26;20003;-56
2024/04/23 13:43:44;;;;;;;1.73;0.80;;;;;;;;;;5411158;26;20000;-55
2024/04/23 13:46:10;;;;;;;1.02;0.85;;;;;;;;;;5410711;26;20510;-56
2024/04/23 13:48:35;;;;;;;1.30;0.90;;;;;;;;;;5410775;26;20454;-56
2024/04/23 13:51:00;;;;;;;2.15;0.88;;;;;;;;;;5409776;26;19999;-56
2024/04/23 13:53:26;;;;;;;1.27;0.80;;;;;;;;;;5409996;26;19999;-56
2024/04/23 13:55:51;;;;;;;1.50;0.90;;;;;;;;;;5410620;26;19999;-55
2024/04/23 13:58:16;;;;;;;2.05;0.90;;;;;;;;;;5409685;26;20011;-56
2024/04/23 14:00:42;;;;;;;2.00;0.90;;;;;;;;;;5395874;26;19996;-56
2024/04/23 14:03:07;;;;;;;5.68;1.08;;;;;;;;;;5384867;26;20027;-56
2024/04/23 14:05:34;;;;;;;2.47;1.20;;;;;;;;;;5388991;26;20024;-56
2024/04/23 14:08:00;;;;;;;4.30;1.10;;;;;;;;;;5386812;26;20012;-56
2024/04/23 14:10:25;;;;;;;1.60;1.02;;;;;;;;;;5395610;26;20006;-55
2024/04/23 14:12:52;;;;;;;2.67;1.05;;;;;;;;;;5400379;26;20429;-55
2024/04/23 14:15:21;;;;;;;2.22;1.27;;;;;;;;;;5390058;26;20007;-56
2024/04/23 14:17:47;;;;;;;2.20;0.85;;;;;;;;;;5385189;26;20036;-57
2024/04/23 14:20:12;;;;;;;1.42;0.70;;;;;;;;;;5383827;26;20522;-57
2024/04/23 14:22:38;;;;;;;1.75;0.93;;;;;;;;;;5386247;26;20015;-55
2024/04/23 14:25:04;;;;;;;3.58;1.00;;;;;;;;;;5378916;26;20023;-55
2024/04/23 14:27:30;;;;;;;2.60;1.10;;;;;;;;;;5388149;26;20000;-55
2024/04/23 14:29:56;;;;;;;2.65;1.08;;;;;;;;;;5390458;26;20498;-55
2024/04/23 14:32:22;;;;;;;2.20;0.90;;;;;;;;;;5387453;26;20022;-56
2024/04/23 14:34:47;;;;;;;2.95;0.90;;;;;;;;;;5389642;26;20080;-56
2024/04/23 14:37:13;;;;;;;2.10;0.95;;;;;;;;;;5390180;26;20016;-55
2024/04/23 14:39:38;;;;;;;1.88;0.70;;;;;;;;;;5386259;26;19999;-56
2024/04/23 14:42:03;;;;;;;3.22;0.85;;;;;;;;;;5386252;26;19996;-56